Terminal Aerodrome Forecast
Issued by NWS

Home | Current Version | Previous Version | Text Only | Print | Product List | Glossary On
Versions: 1 2 3 4 5 6 7 8 9 10 11 12 13 14 15 16
000
FTUS45 KABQ 171100
TAFLVS
TAF
KLVS 171128Z 1712/1812 01012KT P6SM VCSH SCT025 OVC040
     FM171500 05009KT P6SM FEW025 BKN050
     FM171800 16010KT P6SM SCT060
     FM172100 19012G20KT P6SM SCT100
     FM180300 18008KT P6SM FEW200=

USA.gov is the U.S. government's official web portal to all federal, state and local government web resources and services.